Time;durP1;ratioP1;P1;durP2;ratioP2;P2;SDS_P1;SDS_P2;PMS_P1;PMS_P2;Temp;Humidity;BMP_temperature;BMP_pressure;BME280_temperature;BME280_humidity;BME280_pressure;Samples;Min_cycle;Max_cycle;Signal;HPM_P1;HPM_P2
2024/01/12 00:02:09;;;;;;;19.03;12.43;;;0.90;81.00;;;;;;956541;148;27384;-84
2024/01/12 00:04:36;;;;;;;17.13;11.27;;;1.00;81.00;;;;;;956406;149;27280;-85
2024/01/12 00:07:02;;;;;;;15.57;11.70;;;1.10;81.00;;;;;;956564;149;27331;-83
2024/01/12 00:09:29;;;;;;;16.73;11.67;;;1.20;81.10;;;;;;956946;148;27440;-83
2024/01/12 00:11:56;;;;;;;17.67;11.83;;;1.20;81.10;;;;;;956799;148;27404;-84
2024/01/12 00:14:22;;;;;;;16.67;11.37;;;1.30;81.10;;;;;;956922;148;27294;-84
2024/01/12 00:16:49;;;;;;;17.27;11.63;;;1.40;81.10;;;;;;956904;148;27423;-84
2024/01/12 00:19:17;;;;;;;16.70;11.60;;;1.50;81.00;;;;;;956844;149;27309;-83
2024/01/12 00:21:45;;;;;;;19.33;12.57;;;1.50;81.20;;;;;;956452;148;27276;-83
2024/01/12 00:24:12;;;;;;;16.67;11.50;;;1.60;80.90;;;;;;956656;147;27365;-85
2024/01/12 00:26:38;;;;;;;18.47;11.43;;;1.70;80.80;;;;;;956724;148;27392;-83
2024/01/12 00:29:05;;;;;;;19.10;11.50;;;1.70;80.70;;;;;;956100;149;27412;-84
2024/01/12 00:31:31;;;;;;;16.47;11.93;;;1.80;80.90;;;;;;956429;149;27320;-83
2024/01/12 00:33:58;;;;;;;16.87;11.00;;;1.80;80.90;;;;;;955787;148;27428;-83
2024/01/12 00:36:24;;;;;;;15.63;10.93;;;1.90;81.00;;;;;;956831;149;27447;-86
2024/01/12 00:38:51;;;;;;;20.67;12.43;;;2.00;81.00;;;;;;956450;149;27329;-84
2024/01/12 00:41:18;;;;;;;15.27;11.47;;;2.00;80.80;;;;;;955541;149;27292;-84
2024/01/12 00:43:44;;;;;;;14.37;11.53;;;2.10;80.70;;;;;;956756;148;27322;-84
2024/01/12 00:46:11;;;;;;;17.90;11.87;;;2.10;80.50;;;;;;956826;148;27356;-85
2024/01/12 00:48:37;;;;;;;17.00;11.73;;;2.10;80.30;;;;;;956628;149;27759;-84
2024/01/12 00:51:04;;;;;;;16.50;12.00;;;2.20;80.20;;;;;;956512;148;27411;-83
2024/01/12 00:53:31;;;;;;;17.10;11.80;;;2.20;80.20;;;;;;956321;148;28288;-83
2024/01/12 00:55:57;;;;;;;15.30;12.13;;;2.20;80.10;;;;;;956624;148;27283;-84
2024/01/12 00:58:24;;;;;;;14.43;11.60;;;2.20;80.00;;;;;;956834;149;27341;-83
2024/01/12 01:00:50;;;;;;;18.20;12.80;;;2.30;80.00;;;;;;956904;148;27381;-83
2024/01/12 01:03:17;;;;;;;17.57;11.63;;;2.30;79.90;;;;;;956196;149;27342;-84
2024/01/12 01:05:44;;;;;;;16.60;12.20;;;2.30;79.70;;;;;;956429;148;27758;-84
2024/01/12 01:08:10;;;;;;;17.57;12.00;;;2.30;79.70;;;;;;956291;148;27347;-86
2024/01/12 01:10:37;;;;;;;17.67;11.67;;;2.30;79.70;;;;;;956677;149;27334;-83
2024/01/12 01:13:03;;;;;;;16.33;12.43;;;2.30;79.70;;;;;;956601;148;27272;-83
2024/01/12 01:15:30;;;;;;;20.27;13.47;;;2.30;79.70;;;;;;956836;149;27315;-83
2024/01/12 01:17:56;;;;;;;17.60;12.90;;;2.30;80.40;;;;;;957043;149;27298;-86
2024/01/12 01:20:23;;;;;;;21.23;15.03;;;2.30;79.70;;;;;;956686;149;27424;-83
2024/01/12 01:22:50;;;;;;;25.00;15.90;;;2.40;79.90;;;;;;956083;147;28033;-83
2024/01/12 01:25:16;;;;;;;20.50;14.53;;;2.40;79.70;;;;;;956020;148;27286;-88
2024/01/12 01:27:43;;;;;;;20.03;14.27;;;2.40;79.70;;;;;;956507;149;27252;-84
2024/01/12 01:30:10;;;;;;;20.87;14.13;;;2.40;79.50;;;;;;956184;148;27357;-84
2024/01/12 01:32:36;;;;;;;21.23;15.13;;;2.40;79.40;;;;;;955967;148;28039;-83
2024/01/12 01:35:03;;;;;;;21.63;15.33;;;2.40;79.30;;;;;;956391;148;27479;-83
2024/01/12 01:37:29;;;;;;;20.17;14.50;;;2.40;79.20;;;;;;956665;148;27380;-83
2024/01/12 01:39:56;;;;;;;20.77;15.10;;;2.40;79.20;;;;;;956829;148;27358;-86
2024/01/12 01:42:22;;;;;;;20.27;14.50;;;2.40;79.10;;;;;;956768;148;27361;-83
2024/01/12 01:44:49;;;;;;;18.43;14.47;;;2.30;79.00;;;;;;956531;148;27284;-83
2024/01/12 01:47:16;;;;;;;20.57;15.27;;;2.30;78.90;;;;;;956865;148;27279;-84
2024/01/12 01:49:43;;;;;;;22.73;15.73;;;2.30;78.90;;;;;;956352;148;27443;-85
2024/01/12 01:52:09;;;;;;;26.20;15.97;;;2.30;78.90;;;;;;956754;149;27394;-83
2024/01/12 01:54:35;;;;;;;22.27;15.73;;;2.30;79.00;;;;;;956449;148;27436;-83
2024/01/12 01:57:02;;;;;;;24.37;15.13;;;2.20;79.10;;;;;;956765;149;27307;-83
2024/01/12 01:59:29;;;;;;;20.27;14.60;;;2.20;79.00;;;;;;956806;149;27343;-84
2024/01/12 02:01:55;;;;;;;20.87;14.63;;;2.20;79.70;;;;;;956779;148;27346;-83
2024/01/12 02:04:22;;;;;;;19.80;15.30;;;2.20;79.10;;;;;;956189;148;27276;-83
2024/01/12 02:06:48;;;;;;;23.30;14.83;;;2.20;79.10;;;;;;956069;149;27342;-83
2024/01/12 02:09:15;;;;;;;22.43;15.00;;;2.20;79.10;;;;;;956874;149;27439;-84
2024/01/12 02:11:41;;;;;;;20.37;14.07;;;2.20;79.10;;;;;;956634;149;27801;-86
2024/01/12 02:14:08;;;;;;;24.63;15.63;;;2.20;79.00;;;;;;956452;149;27322;-85
2024/01/12 02:16:35;;;;;;;21.10;15.03;;;2.20;78.90;;;;;;956384;148;27315;-83
2024/01/12 02:19:01;;;;;;;23.13;15.23;;;2.20;78.90;;;;;;956228;149;27279;-83
2024/01/12 02:21:28;;;;;;;22.07;14.97;;;2.20;78.80;;;;;;957053;147;27283;-83
2024/01/12 02:23:54;;;;;;;20.40;14.90;;;2.10;78.70;;;;;;956702;148;27327;-83
2024/01/12 02:26:21;;;;;;;21.73;14.87;;;2.10;78.80;;;;;;956858;147;27315;-83
2024/01/12 02:28:48;;;;;;;22.07;16.13;;;2.10;78.80;;;;;;956476;149;27242;-83
2024/01/12 02:31:14;;;;;;;24.13;16.53;;;2.10;78.80;;;;;;956552;149;27327;-83
2024/01/12 02:33:41;;;;;;;24.37;16.80;;;2.10;78.90;;;;;;956266;149;27345;-83
2024/01/12 02:36:07;;;;;;;26.13;16.97;;;2.10;78.80;;;;;;957773;148;27378;-83
2024/01/12 02:38:34;;;;;;;24.53;17.23;;;2.10;78.80;;;;;;957122;149;27336;-83
2024/01/12 02:41:01;;;;;;;28.50;18.47;;;2.10;78.70;;;;;;957180;148;27303;-84
2024/01/12 02:43:27;;;;;;;25.67;17.53;;;2.10;78.60;;;;;;957810;149;27492;-85
2024/01/12 02:45:54;;;;;;;24.87;17.63;;;2.00;78.60;;;;;;957790;149;27354;-83
2024/01/12 02:48:20;;;;;;;25.53;18.07;;;2.00;78.60;;;;;;958066;146;27715;-83
2024/01/12 02:50:47;;;;;;;27.03;18.60;;;2.00;78.60;;;;;;957502;148;27814;-84
2024/01/12 02:53:13;;;;;;;26.77;18.97;;;2.00;78.50;;;;;;957811;149;27335;-86
2024/01/12 02:55:40;;;;;;;26.93;18.33;;;2.00;78.50;;;;;;957994;146;27338;-83
2024/01/12 02:58:07;;;;;;;29.90;20.47;;;2.00;78.50;;;;;;957278;149;27307;-83
2024/01/12 03:00:33;;;;;;;25.83;18.80;;;2.00;78.50;;;;;;957588;146;27318;-86
2024/01/12 03:03:00;;;;;;;31.53;20.30;;;1.90;78.40;;;;;;957839;146;27329;-84
2024/01/12 03:05:26;;;;;;;32.20;20.33;;;1.90;78.40;;;;;;957862;146;27347;-83
2024/01/12 03:07:53;;;;;;;31.33;20.60;;;1.90;78.30;;;;;;957276;149;27335;-83
2024/01/12 03:10:20;;;;;;;30.97;19.90;;;1.90;78.40;;;;;;957753;148;27300;-84
2024/01/12 03:12:46;;;;;;;30.67;20.77;;;1.90;78.60;;;;;;957531;149;27231;-83
2024/01/12 03:15:13;;;;;;;29.13;20.80;;;1.90;78.50;;;;;;958384;146;27860;-85
2024/01/12 03:17:40;;;;;;;28.67;18.93;;;1.90;78.50;;;;;;957910;149;27874;-83
2024/01/12 03:20:06;;;;;;;25.50;18.13;;;1.90;78.60;;;;;;957493;146;27380;-83
2024/01/12 03:22:33;;;;;;;30.93;20.70;;;1.90;78.60;;;;;;957608;147;27989;-84
2024/01/12 03:24:59;;;;;;;32.97;20.87;;;1.80;78.50;;;;;;957228;148;27338;-85
2024/01/12 03:27:26;;;;;;;31.00;20.67;;;1.80;78.40;;;;;;957924;149;27346;-87
2024/01/12 03:29:52;;;;;;;29.80;20.07;;;1.80;78.50;;;;;;957844;146;27357;-87
2024/01/12 03:32:19;;;;;;;31.67;19.90;;;1.80;78.50;;;;;;957655;146;27323;-87
2024/01/12 03:34:46;;;;;;;32.83;20.50;;;1.90;78.60;;;;;;957767;149;27294;-86
2024/01/12 03:37:12;;;;;;;29.57;20.37;;;1.80;78.50;;;;;;958067;149;27319;-85
2024/01/12 03:39:39;;;;;;;30.33;19.37;;;1.80;77.90;;;;;;957780;146;27405;-86
2024/01/12 03:42:05;;;;;;;28.70;20.13;;;1.80;78.50;;;;;;957820;149;27299;-87
2024/01/12 03:44:32;;;;;;;33.53;20.90;;;1.80;78.50;;;;;;957918;148;27278;-87
2024/01/12 03:46:59;;;;;;;29.90;20.23;;;1.80;78.60;;;;;;957952;148;27244;-86
2024/01/12 03:49:25;;;;;;;29.93;20.70;;;1.80;78.50;;;;;;957848;146;27349;-87
2024/01/12 03:51:55;;;;;;;28.47;20.10;;;1.80;78.60;;;;;;957762;149;27416;-86
2024/01/12 03:54:21;;;;;;;31.13;20.33;;;1.80;78.60;;;;;;957247;148;27400;-87
2024/01/12 03:56:47;;;;;;;30.50;19.60;;;1.80;78.70;;;;;;957004;149;27299;-84
2024/01/12 03:59:14;;;;;;;30.63;21.00;;;1.80;78.90;;;;;;957247;148;27327;-88
2024/01/12 04:01:44;;;;;;;31.47;20.83;;;1.80;78.80;;;;;;957309;148;27389;-88
2024/01/12 04:04:10;;;;;;;31.03;20.80;;;1.80;78.90;;;;;;956207;149;27392;-87
2024/01/12 04:06:37;;;;;;;29.00;20.40;;;1.80;78.80;;;;;;957570;146;27298;-85
2024/01/12 04:09:03;;;;;;;30.57;20.87;;;1.80;78.70;;;;;;957250;148;27498;-88
2024/01/12 04:11:30;;;;;;;31.27;22.07;;;1.80;78.70;;;;;;957678;149;27371;-87
2024/01/12 04:13:56;;;;;;;28.83;20.33;;;1.80;78.70;;;;;;957558;149;27272;-88
2024/01/12 04:16:23;;;;;;;30.97;20.87;;;1.80;78.80;;;;;;957988;148;27783;-87
2024/01/12 04:18:50;;;;;;;32.63;21.67;;;1.80;78.70;;;;;;956922;148;27371;-84
2024/01/12 04:21:16;;;;;;;29.57;19.53;;;1.90;78.80;;;;;;958061;147;27357;-87
2024/01/12 04:23:43;;;;;;;30.47;22.30;;;1.90;78.80;;;;;;957815;146;27354;-87
2024/01/12 04:26:09;;;;;;;31.33;20.73;;;1.90;78.90;;;;;;958149;147;27319;-87
2024/01/12 04:28:36;;;;;;;31.57;20.07;;;1.90;78.80;;;;;;957847;146;27349;-83
2024/01/12 04:31:03;;;;;;;31.23;20.27;;;1.90;78.80;;;;;;957658;148;27431;-87
2024/01/12 04:33:32;;;;;;;28.67;19.60;;;1.90;78.80;;;;;;957531;148;27306;-86
2024/01/12 04:35:58;;;;;;;31.97;20.93;;;1.90;78.60;;;;;;957359;148;27327;-87
2024/01/12 04:38:25;;;;;;;28.37;18.90;;;1.90;78.60;;;;;;956604;148;27268;-85
2024/01/12 04:40:52;;;;;;;27.43;20.00;;;1.90;79.40;;;;;;956697;149;27352;-86
2024/01/12 04:43:18;;;;;;;29.17;19.73;;;1.90;78.70;;;;;;956819;149;27331;-87
2024/01/12 04:45:45;;;;;;;31.27;20.30;;;1.90;78.80;;;;;;956753;149;27787;-87
2024/01/12 04:48:11;;;;;;;29.10;20.57;;;1.90;78.80;;;;;;956815;149;27317;-85
2024/01/12 04:50:38;;;;;;;29.07;19.67;;;1.90;78.80;;;;;;956863;149;27334;-87
2024/01/12 04:53:05;;;;;;;28.97;20.43;;;2.00;78.90;;;;;;956488;148;27401;-87
2024/01/12 04:55:31;;;;;;;31.80;20.10;;;2.00;78.90;;;;;;956619;149;27248;-88
2024/01/12 04:57:58;;;;;;;29.43;19.20;;;1.90;78.90;;;;;;956976;149;27291;-82
2024/01/12 05:00:24;;;;;;;28.57;19.40;;;2.00;78.90;;;;;;956686;149;27427;-82
2024/01/12 05:02:51;;;;;;;29.70;19.90;;;2.00;79.00;;;;;;956167;149;27349;-83
2024/01/12 05:05:18;;;;;;;29.87;20.97;;;2.00;79.10;;;;;;956588;149;27328;-82
2024/01/12 05:07:44;;;;;;;28.07;19.87;;;2.00;79.10;;;;;;956260;148;27375;-83
2024/01/12 05:10:11;;;;;;;28.27;19.20;;;2.10;79.10;;;;;;956671;149;27393;-84
2024/01/12 05:12:37;;;;;;;28.63;18.70;;;2.10;79.10;;;;;;956621;148;27438;-82
2024/01/12 05:15:04;;;;;;;27.13;18.97;;;2.10;79.00;;;;;;956519;149;27319;-83
2024/01/12 05:17:31;;;;;;;30.43;19.97;;;2.10;79.00;;;;;;956621;149;27403;-83
2024/01/12 05:19:58;;;;;;;28.63;18.63;;;2.10;79.00;;;;;;956613;148;27357;-84
2024/01/12 05:22:24;;;;;;;30.10;18.73;;;2.10;78.90;;;;;;957036;147;27362;-83
2024/01/12 05:24:50;;;;;;;25.50;18.83;;;2.10;78.90;;;;;;956276;147;27310;-83
2024/01/12 05:27:17;;;;;;;29.20;20.10;;;2.20;78.90;;;;;;956506;149;27388;-83
2024/01/12 05:29:44;;;;;;;28.77;18.83;;;2.10;78.80;;;;;;956749;149;27707;-83
2024/01/12 05:32:10;;;;;;;28.13;17.90;;;2.10;78.90;;;;;;956530;149;27436;-84
2024/01/12 05:34:37;;;;;;;28.83;18.17;;;2.10;78.90;;;;;;956608;149;27329;-83
2024/01/12 05:37:03;;;;;;;28.77;20.67;;;2.10;78.90;;;;;;956207;148;27415;-83
2024/01/12 05:39:30;;;;;;;28.57;19.47;;;2.10;79.10;;;;;;956665;149;27324;-83
2024/01/12 05:41:57;;;;;;;28.13;18.30;;;2.10;79.00;;;;;;956626;149;27329;-84
2024/01/12 05:44:23;;;;;;;30.27;19.77;;;2.10;79.00;;;;;;956652;149;27338;-83
2024/01/12 05:46:50;;;;;;;24.33;17.57;;;2.20;79.10;;;;;;956388;148;27376;-83
2024/01/12 05:49:16;;;;;;;24.87;18.83;;;2.10;79.10;;;;;;956510;149;27291;-87
2024/01/12 05:51:43;;;;;;;25.80;18.83;;;2.10;79.10;;;;;;956964;149;27271;-85
2024/01/12 05:54:09;;;;;;;28.63;18.27;;;2.10;79.10;;;;;;956913;149;27381;-88
2024/01/12 05:56:36;;;;;;;23.23;17.27;;;2.10;79.10;;;;;;956580;149;27353;-83
2024/01/12 05:59:02;;;;;;;28.23;19.27;;;2.20;79.20;;;;;;956883;149;27315;-87
2024/01/12 06:01:29;;;;;;;28.20;19.67;;;2.10;79.40;;;;;;956965;149;27356;-87
2024/01/12 06:03:56;;;;;;;25.90;18.60;;;2.10;79.30;;;;;;956609;149;27331;-84
2024/01/12 06:06:24;;;;;;;31.00;18.37;;;2.20;79.40;;;;;;956454;149;27338;-88
2024/01/12 06:08:49;;;;;;;23.87;17.27;;;2.20;79.50;;;;;;955844;149;27435;-87
2024/01/12 06:11:15;;;;;;;24.90;18.20;;;2.20;79.50;;;;;;956415;149;27268;-87
2024/01/12 06:13:42;;;;;;;21.63;16.63;;;2.20;79.60;;;;;;956489;149;27240;-85
2024/01/12 06:16:09;;;;;;;26.70;18.53;;;2.20;79.60;;;;;;957024;149;27715;-86
2024/01/12 06:18:35;;;;;;;27.70;17.97;;;2.30;79.60;;;;;;956342;149;27334;-87
2024/01/12 06:21:02;;;;;;;22.70;16.70;;;2.30;79.50;;;;;;956062;149;27255;-88
2024/01/12 06:23:28;;;;;;;26.57;17.67;;;2.30;79.40;;;;;;957014;148;27287;-87
2024/01/12 06:25:55;;;;;;;24.30;16.80;;;2.30;79.40;;;;;;957152;147;27318;-85
2024/01/12 06:28:22;;;;;;;22.60;15.97;;;2.30;79.40;;;;;;956873;149;27428;-88
2024/01/12 06:30:48;;;;;;;23.80;17.00;;;2.40;79.60;;;;;;956707;149;27246;-88
2024/01/12 06:33:15;;;;;;;24.30;18.17;;;2.30;79.60;;;;;;956956;149;27596;-87
2024/01/12 06:35:41;;;;;;;22.43;16.57;;;2.30;79.50;;;;;;956379;148;27287;-85
2024/01/12 06:38:10;;;;;;;22.23;16.13;;;2.40;79.60;;;;;;957600;149;27374;-87
2024/01/12 06:40:34;;;;;;;25.57;16.50;;;2.40;79.60;;;;;;957353;148;27380;-86
2024/01/12 06:43:01;;;;;;;22.67;16.13;;;2.40;79.60;;;;;;956865;149;27404;-87
2024/01/12 06:45:28;;;;;;;21.77;16.87;;;2.40;79.70;;;;;;957619;149;27287;-85
2024/01/12 06:47:54;;;;;;;22.73;17.10;;;2.40;79.60;;;;;;957720;146;27361;-87
2024/01/12 06:50:21;;;;;;;25.10;16.90;;;2.40;79.60;;;;;;958084;146;27338;-88
2024/01/12 06:52:47;;;;;;;21.97;15.57;;;2.40;79.70;;;;;;957238;148;27291;-89
2024/01/12 06:55:14;;;;;;;24.50;17.80;;;2.40;79.70;;;;;;957765;149;27289;-90
2024/01/12 06:57:43;;;;;;;24.13;16.77;;;2.40;79.70;;;;;;957833;149;27403;-87
2024/01/12 07:00:08;;;;;;;23.47;16.60;;;2.50;79.90;;;;;;957414;148;27419;-87
2024/01/12 07:02:34;;;;;;;23.07;16.60;;;2.50;79.80;;;;;;957684;149;27291;-88
2024/01/12 07:05:00;;;;;;;25.80;15.90;;;2.50;80.70;;;;;;957625;148;27344;-87
2024/01/12 07:07:27;;;;;;;22.33;15.77;;;2.50;79.70;;;;;;957280;149;27275;-84
2024/01/12 07:09:54;;;;;;;21.93;15.30;;;2.50;79.70;;;;;;957088;148;27486;-87
2024/01/12 07:12:20;;;;;;;23.80;15.13;;;2.50;79.70;;;;;;957647;148;27353;-88
2024/01/12 07:14:47;;;;;;;18.87;14.67;;;2.50;79.70;;;;;;957894;146;27348;-86
2024/01/12 07:17:13;;;;;;;24.57;15.80;;;2.60;79.80;;;;;;958030;146;27282;-85
2024/01/12 07:19:40;;;;;;;21.87;16.07;;;2.60;79.70;;;;;;957623;148;27422;-85
2024/01/12 07:22:06;;;;;;;23.30;16.30;;;2.60;79.90;;;;;;957812;147;27285;-84
2024/01/12 07:24:33;;;;;;;23.40;16.73;;;2.60;79.70;;;;;;957463;147;27399;-84
2024/01/12 07:27:00;;;;;;;24.00;16.90;;;2.60;79.70;;;;;;957724;148;27436;-83
2024/01/12 07:29:26;;;;;;;23.60;16.10;;;2.60;79.60;;;;;;957381;148;27346;-84
2024/01/12 07:31:54;;;;;;;25.33;16.30;;;2.60;79.60;;;;;;957578;148;27349;-82
2024/01/12 07:34:19;;;;;;;20.47;15.33;;;2.60;79.60;;;;;;957311;148;27368;-83
2024/01/12 07:36:46;;;;;;;24.03;15.67;;;2.60;79.60;;;;;;957265;148;27384;-83
2024/01/12 07:39:13;;;;;;;21.80;15.80;;;2.60;79.70;;;;;;957930;149;27359;-84
2024/01/12 07:41:39;;;;;;;22.67;16.30;;;2.60;79.70;;;;;;957762;146;27334;-82
2024/01/12 07:44:07;;;;;;;21.60;15.93;;;2.60;79.70;;;;;;955468;148;27323;-83
2024/01/12 07:46:32;;;;;;;24.80;17.27;;;2.70;79.80;;;;;;957541;149;27427;-83
2024/01/12 07:48:59;;;;;;;23.17;16.40;;;2.60;79.70;;;;;;957655;148;27280;-83
2024/01/12 07:51:26;;;;;;;24.60;16.73;;;2.60;79.70;;;;;;957715;149;27346;-82
2024/01/12 07:53:52;;;;;;;20.97;15.33;;;2.70;80.20;;;;;;957618;146;27290;-82
2024/01/12 07:56:19;;;;;;;23.33;16.83;;;2.70;79.70;;;;;;956665;149;27251;-82
2024/01/12 07:58:45;;;;;;;23.00;16.37;;;2.70;79.70;;;;;;957393;148;27310;-83
2024/01/12 08:01:12;;;;;;;22.90;17.80;;;2.70;79.80;;;;;;957033;149;27362;-82
2024/01/12 08:03:39;;;;;;;25.40;16.67;;;2.70;79.90;;;;;;957134;148;27463;-84
2024/01/12 08:06:05;;;;;;;23.00;16.17;;;2.70;79.90;;;;;;957488;148;27379;-83
2024/01/12 08:08:32;;;;;;;21.37;15.90;;;2.70;80.70;;;;;;957550;147;27851;-83
2024/01/12 08:10:58;;;;;;;21.93;16.13;;;2.70;80.00;;;;;;957305;146;27427;-83
2024/01/12 08:13:25;;;;;;;20.57;15.77;;;2.70;80.00;;;;;;957958;148;27347;-82
2024/01/12 08:15:51;;;;;;;19.57;14.47;;;2.80;80.00;;;;;;957082;146;27750;-83
2024/01/12 08:18:22;;;;;;;21.23;14.70;;;2.80;80.00;;;;;;957472;149;27371;-83
2024/01/12 08:20:48;;;;;;;20.33;15.10;;;2.80;79.90;;;;;;957476;148;27451;-83
2024/01/12 08:23:15;;;;;;;19.43;13.93;;;2.80;80.00;;;;;;957529;148;27763;-82
2024/01/12 08:25:41;;;;;;;18.20;13.20;;;2.80;80.00;;;;;;957343;147;27348;-82
2024/01/12 08:28:07;;;;;;;19.03;13.43;;;2.80;80.20;;;;;;957402;147;27239;-83
2024/01/12 08:30:34;;;;;;;19.63;13.53;;;2.80;80.20;;;;;;957363;148;27380;-83
2024/01/12 08:33:00;;;;;;;19.97;13.57;;;2.80;80.20;;;;;;956463;146;27444;-83
2024/01/12 08:35:27;;;;;;;17.67;12.37;;;2.90;80.30;;;;;;956465;148;27327;-83
2024/01/12 08:37:54;;;;;;;17.03;12.67;;;2.90;80.40;;;;;;955671;149;27359;-83
2024/01/12 08:40:20;;;;;;;17.93;12.73;;;2.90;80.50;;;;;;961927;148;27330;-83
2024/01/12 08:42:47;;;;;;;17.83;13.03;;;2.90;80.60;;;;;;963218;148;27352;-83
2024/01/12 08:45:14;;;;;;;17.37;13.40;;;2.90;80.80;;;;;;962877;148;27354;-83
2024/01/12 08:47:40;;;;;;;17.63;13.20;;;3.00;80.70;;;;;;962239;148;27848;-83
2024/01/12 08:50:07;;;;;;;19.87;12.97;;;3.00;80.70;;;;;;962042;147;27318;-83
2024/01/12 08:52:33;;;;;;;18.40;13.60;;;3.00;80.60;;;;;;962050;145;27313;-83
2024/01/12 08:55:00;;;;;;;17.73;12.93;;;3.10;80.70;;;;;;963194;145;27446;-82
2024/01/12 08:57:26;;;;;;;18.57;13.97;;;3.00;80.60;;;;;;962571;148;27414;-82
2024/01/12 08:59:53;;;;;;;18.67;13.80;;;3.10;80.70;;;;;;962266;148;27436;-83
2024/01/12 09:02:19;;;;;;;18.30;13.50;;;3.10;80.80;;;;;;963106;148;27298;-83
2024/01/12 09:04:46;;;;;;;16.93;12.53;;;3.10;80.80;;;;;;963145;147;27370;-82
2024/01/12 09:07:13;;;;;;;18.73;13.57;;;3.10;80.90;;;;;;962934;148;27413;-83
2024/01/12 09:09:39;;;;;;;16.37;12.67;;;3.20;81.00;;;;;;961984;148;27339;-82
2024/01/12 09:12:06;;;;;;;17.83;12.97;;;3.20;81.00;;;;;;963708;147;27310;-83
2024/01/12 09:14:32;;;;;;;15.77;12.47;;;3.20;81.00;;;;;;962822;148;27430;-82
2024/01/12 09:16:59;;;;;;;17.53;13.40;;;3.20;81.00;;;;;;962974;148;27337;-83
2024/01/12 09:19:26;;;;;;;17.13;12.37;;;3.30;81.00;;;;;;961810;148;27411;-85
2024/01/12 09:21:52;;;;;;;17.13;13.63;;;3.30;81.00;;;;;;962740;147;27277;-85
2024/01/12 09:24:19;;;;;;;17.17;13.00;;;3.30;81.10;;;;;;963627;146;27355;-84
2024/01/12 09:26:45;;;;;;;17.70;13.30;;;3.30;81.00;;;;;;962643;147;27332;-86
2024/01/12 09:29:12;;;;;;;19.27;13.93;;;3.40;81.20;;;;;;963716;147;27334;-86
2024/01/12 09:31:38;;;;;;;19.20;13.17;;;3.40;81.20;;;;;;962381;148;27321;-86
2024/01/12 09:34:05;;;;;;;17.07;13.13;;;3.40;81.20;;;;;;963072;148;27394;-84
2024/01/12 09:36:32;;;;;;;21.60;14.83;;;3.40;81.30;;;;;;962492;148;27431;-86
2024/01/12 09:38:58;;;;;;;19.23;13.33;;;3.50;81.40;;;;;;961509;148;27654;-85
2024/01/12 09:41:46;;;;;;;18.50;13.23;;;3.50;81.40;;;;;;955988;149;27360;-86
2024/01/12 09:44:13;;;;;;;18.50;12.73;;;3.50;81.50;;;;;;936116;148;27414;-85
2024/01/12 09:46:57;;;;;;;15.23;12.00;;;3.60;81.50;;;;;;956716;146;27310;-83
2024/01/12 09:49:21;;;;;;;16.33;12.77;;;3.60;81.50;;;;;;954867;149;27439;-86
2024/01/12 09:51:47;;;;;;;18.37;12.90;;;3.60;81.40;;;;;;956073;146;27352;-85
2024/01/12 09:54:14;;;;;;;17.30;13.13;;;3.60;81.40;;;;;;956074;149;27388;-86
2024/01/12 09:56:41;;;;;;;18.60;13.80;;;3.70;81.50;;;;;;956474;149;27287;-85
2024/01/12 09:59:07;;;;;;;15.63;12.73;;;3.70;81.50;;;;;;954735;148;27376;-86
2024/01/12 10:01:34;;;;;;;18.90;13.80;;;3.70;81.70;;;;;;956006;149;27430;-86
2024/01/12 10:04:00;;;;;;;17.93;13.63;;;3.80;81.70;;;;;;955867;148;27420;-86
2024/01/12 10:06:27;;;;;;;17.77;13.07;;;3.80;81.70;;;;;;956547;147;27400;-87
2024/01/12 10:08:54;;;;;;;16.13;12.93;;;3.90;81.60;;;;;;955579;149;27351;-84
2024/01/12 10:11:20;;;;;;;19.27;13.87;;;3.90;81.50;;;;;;956219;149;27323;-87
2024/01/12 10:13:47;;;;;;;19.27;13.50;;;4.00;81.60;;;;;;955705;146;27672;-86
2024/01/12 10:16:13;;;;;;;18.23;13.57;;;4.00;81.60;;;;;;955755;149;27299;-86
2024/01/12 10:18:40;;;;;;;17.43;13.07;;;4.00;81.60;;;;;;956781;146;27303;-85
2024/01/12 10:21:06;;;;;;;17.80;13.00;;;4.10;81.70;;;;;;955887;149;27469;-85
2024/01/12 10:23:33;;;;;;;21.90;17.03;;;4.10;81.70;;;;;;956664;147;27314;-86
2024/01/12 10:26:00;;;;;;;20.03;15.23;;;4.10;81.80;;;;;;956055;146;27323;-86
2024/01/12 10:28:29;;;;;;;21.80;14.47;;;4.20;81.80;;;;;;955671;146;27436;-85
2024/01/12 10:30:55;;;;;;;18.13;13.23;;;4.20;81.60;;;;;;955503;146;27440;-87
2024/01/12 10:33:25;;;;;;;16.83;13.37;;;4.20;81.50;;;;;;956787;149;27307;-87
2024/01/12 10:35:49;;;;;;;16.07;12.30;;;4.20;81.50;;;;;;956437;148;27356;-86
2024/01/12 10:38:15;;;;;;;18.47;14.03;;;4.20;81.50;;;;;;957411;148;27337;-84
2024/01/12 10:40:42;;;;;;;16.17;12.87;;;4.30;81.60;;;;;;960542;148;27459;-87
2024/01/12 10:43:11;;;;;;;16.47;13.07;;;4.30;81.70;;;;;;964043;148;27290;-87
2024/01/12 10:45:35;;;;;;;16.97;13.53;;;4.30;81.80;;;;;;961582;148;27375;-87
2024/01/12 10:48:07;;;;;;;17.70;13.03;;;4.30;82.60;;;;;;963484;148;27417;-87
2024/01/12 10:50:34;;;;;;;17.70;12.47;;;4.40;82.00;;;;;;962595;148;27325;-83
2024/01/12 10:53:22;;;;;;;17.93;12.40;;;4.40;81.90;;;;;;962999;148;27262;-83
2024/01/12 10:55:48;;;;;;;32.47;22.90;;;4.40;82.00;;;;;;962598;145;27242;-84
2024/01/12 10:58:15;;;;;;;15.00;12.60;;;4.40;82.00;;;;;;962864;148;27341;-84
2024/01/12 11:00:42;;;;;;;13.67;11.83;;;4.50;82.00;;;;;;963641;148;27406;-84
2024/01/12 11:03:08;;;;;;;24.17;19.17;;;4.50;82.00;;;;;;963977;148;27329;-84
2024/01/12 11:05:35;;;;;;;19.37;15.87;;;4.50;82.00;;;;;;963445;145;28113;-84
2024/01/12 11:08:02;;;;;;;17.73;13.13;;;4.50;82.00;;;;;;963926;146;27427;-82
2024/01/12 11:10:28;;;;;;;13.27;11.77;;;4.50;81.90;;;;;;964153;148;27325;-82
2024/01/12 11:12:55;;;;;;;14.00;11.07;;;4.60;82.10;;;;;;963946;145;27395;-82
2024/01/12 11:15:21;;;;;;;14.63;13.10;;;4.60;82.20;;;;;;963864;148;27369;-82
2024/01/12 11:17:48;;;;;;;16.33;12.83;;;4.60;82.50;;;;;;963932;146;27394;-82
2024/01/12 11:20:14;;;;;;;17.57;13.50;;;4.60;82.50;;;;;;963874;146;27847;-82
2024/01/12 11:22:41;;;;;;;17.07;12.23;;;4.70;82.60;;;;;;963790;148;27340;-84
2024/01/12 11:25:08;;;;;;;15.97;11.90;;;4.70;82.70;;;;;;963948;145;27409;-83
2024/01/12 11:27:34;;;;;;;15.47;11.90;;;4.70;82.80;;;;;;963696;148;27314;-83
2024/01/12 11:30:01;;;;;;;15.37;11.30;;;4.70;82.80;;;;;;964114;148;27398;-82
2024/01/12 11:32:30;;;;;;;15.97;12.03;;;4.80;82.80;;;;;;963256;145;27437;-84
2024/01/12 11:34:54;;;;;;;17.37;12.63;;;4.80;83.60;;;;;;962117;148;27341;-82
2024/01/12 11:37:20;;;;;;;16.63;12.07;;;4.80;82.90;;;;;;962781;148;27427;-83
2024/01/12 11:39:47;;;;;;;15.97;11.33;;;4.80;83.00;;;;;;963818;148;27301;-86
2024/01/12 11:42:14;;;;;;;15.00;10.53;;;4.80;83.10;;;;;;962827;146;27334;-86
2024/01/12 11:44:40;;;;;;;13.87;10.90;;;4.80;83.30;;;;;;964239;147;27423;-83
2024/01/12 11:47:07;;;;;;;16.30;11.27;;;4.90;83.50;;;;;;963195;146;27430;-87
2024/01/12 11:49:34;;;;;;;16.27;11.60;;;4.90;83.50;;;;;;963789;146;27394;-86
2024/01/12 11:52:07;;;;;;;15.80;11.73;;;4.90;83.50;;;;;;963986;148;27289;-86
2024/01/12 11:54:33;;;;;;;15.67;11.37;;;4.90;82.70;;;;;;964501;147;27346;-83
2024/01/12 11:57:01;;;;;;;16.60;12.03;;;5.00;83.50;;;;;;964419;145;27328;-87
2024/01/12 11:59:26;;;;;;;16.33;11.67;;;5.00;83.50;;;;;;963985;145;27386;-86
2024/01/12 12:01:52;;;;;;;15.93;12.03;;;5.00;83.40;;;;;;964328;146;27278;-86
2024/01/12 12:04:19;;;;;;;16.93;11.70;;;5.00;83.40;;;;;;964411;148;27290;-84
2024/01/12 12:06:48;;;;;;;14.60;11.97;;;4.90;83.30;;;;;;964341;145;27427;-87
2024/01/12 12:09:15;;;;;;;20.53;12.83;;;4.90;83.00;;;;;;964103;145;27337;-86
2024/01/12 12:11:41;;;;;;;17.10;12.37;;;4.90;83.50;;;;;;964430;145;27302;-86
2024/01/12 12:14:08;;;;;;;18.27;11.63;;;4.90;83.70;;;;;;964337;148;27429;-83
2024/01/12 12:16:34;;;;;;;16.10;11.97;;;4.90;83.90;;;;;;964513;148;27325;-86
2024/01/12 12:19:02;;;;;;;17.20;12.70;;;4.80;83.90;;;;;;963889;148;27275;-87
2024/01/12 12:21:28;;;;;;;17.43;12.20;;;4.80;84.10;;;;;;964550;146;27286;-86
2024/01/12 12:23:54;;;;;;;16.20;12.73;;;4.80;84.20;;;;;;964012;148;27293;-85
2024/01/12 12:26:21;;;;;;;15.27;11.83;;;4.80;84.30;;;;;;964530;148;27369;-86
2024/01/12 12:28:47;;;;;;;17.63;12.47;;;4.80;84.50;;;;;;963808;146;27314;-88
2024/01/12 12:31:14;;;;;;;15.97;12.20;;;4.80;84.70;;;;;;963512;148;27339;-86
2024/01/12 12:33:44;;;;;;;17.57;12.70;;;4.70;84.90;;;;;;964265;148;27270;-85